sensor_id;sensor_type;location;lat;lon;timestamp;pressure;altitude;pressure_sealevel;temperature;humidity
55070;BME280;40967;52.070;8.596;2022-10-16T00:01:25;100045.09;;;13.05;100.00
55070;BME280;40967;52.070;8.596;2022-10-16T00:03:51;100034.25;;;13.00;100.00
55070;BME280;40967;52.070;8.596;2022-10-16T00:06:19;100047.72;;;13.10;100.00
55070;BME280;40967;52.070;8.596;2022-10-16T00:08:45;100055.91;;;13.10;100.00
55070;BME280;40967;52.070;8.596;2022-10-16T00:11:17;100066.00;;;13.10;100.00
55070;BME280;40967;52.070;8.596;2022-10-16T00:13:45;100068.72;;;13.10;100.00
55070;BME280;40967;52.070;8.596;2022-10-16T00:16:12;100062.16;;;13.11;100.00
55070;BME280;40967;52.070;8.596;2022-10-16T00:18:38;100057.81;;;13.10;100.00
55070;BME280;40967;52.070;8.596;2022-10-16T00:21:06;100055.09;;;13.10;100.00
55070;BME280;40967;52.070;8.596;2022-10-16T00:23:32;100052.38;;;13.10;100.00
55070;BME280;40967;52.070;8.596;2022-10-16T00:26:00;100060.25;;;13.11;100.00
55070;BME280;40967;52.070;8.596;2022-10-16T00:28:27;100064.88;;;13.11;100.00
55070;BME280;40967;52.070;8.596;2022-10-16T00:30:53;100061.34;;;13.10;100.00
55070;BME280;40967;52.070;8.596;2022-10-16T00:33:19;100060.81;;;13.08;100.00
55070;BME280;40967;52.070;8.596;2022-10-16T00:35:44;100067.09;;;13.09;100.00
55070;BME280;40967;52.070;8.596;2022-10-16T00:38:10;100056.72;;;13.11;100.00
55070;BME280;40967;52.070;8.596;2022-10-16T00:40:36;100051.25;;;13.11;100.00
55070;BME280;40967;52.070;8.596;2022-10-16T00:43:01;100057.81;;;13.10;100.00
55070;BME280;40967;52.070;8.596;2022-10-16T00:45:26;100058.63;;;13.10;100.00
55070;BME280;40967;52.070;8.596;2022-10-16T00:47:53;100055.91;;;13.10;100.00
55070;BME280;40967;52.070;8.596;2022-10-16T00:50:29;100053.16;;;13.10;100.00
55070;BME280;40967;52.070;8.596;2022-10-16T00:52:56;100039.63;;;13.05;100.00
55070;BME280;40967;52.070;8.596;2022-10-16T00:55:22;100053.78;;;13.07;100.00
55070;BME280;40967;52.070;8.596;2022-10-16T00:57:48;100062.25;;;13.06;100.00
55070;BME280;40967;52.070;8.596;2022-10-16T01:00:19;100065.25;;;13.04;100.00
55070;BME280;40967;52.070;8.596;2022-10-16T01:02:52;100060.38;;;13.01;100.00
55070;BME280;40967;52.070;8.596;2022-10-16T01:05:17;100064.75;;;13.02;100.00
55070;BME280;40967;52.070;8.596;2022-10-16T01:10:47;100060.38;;;13.01;100.00
55070;BME280;40967;52.070;8.596;2022-10-16T01:13:32;100053.38;;;12.95;100.00
55070;BME280;40967;52.070;8.596;2022-10-16T01:16:10;100068.03;;;12.99;100.00
55070;BME280;40967;52.070;8.596;2022-10-16T01:18:46;100081.97;;;12.98;100.00
55070;BME280;40967;52.070;8.596;2022-10-16T01:21:25;100083.56;;;12.99;100.00
55070;BME280;40967;52.070;8.596;2022-10-16T01:32:38;100070.31;;;12.92;100.00
55070;BME280;40967;52.070;8.596;2022-10-16T01:35:10;100070.25;;;12.97;100.00
55070;BME280;40967;52.070;8.596;2022-10-16T01:37:41;100076.50;;;12.98;100.00
55070;BME280;40967;52.070;8.596;2022-10-16T01:40:11;100080.03;;;12.98;100.00
55070;BME280;40967;52.070;8.596;2022-10-16T01:42:41;100086.59;;;12.97;100.00
55070;BME280;40967;52.070;8.596;2022-10-16T01:45:09;100089.91;;;12.94;100.00
55070;BME280;40967;52.070;8.596;2022-10-16T01:47:37;100088.78;;;12.95;100.00
55070;BME280;40967;52.070;8.596;2022-10-16T01:50:04;100089.91;;;12.94;100.00
55070;BME280;40967;52.070;8.596;2022-10-16T01:52:32;100089.09;;;12.94;100.00
55070;BME280;40967;52.070;8.596;2022-10-16T01:55:00;100077.31;;;12.80;100.00
55070;BME280;40967;52.070;8.596;2022-10-16T01:57:28;100080.56;;;12.82;100.00
55070;BME280;40967;52.070;8.596;2022-10-16T01:59:58;100088.88;;;12.90;100.00
55070;BME280;40967;52.070;8.596;2022-10-16T02:02:28;100088.34;;;12.88;100.00
55070;BME280;40967;52.070;8.596;2022-10-16T02:04:59;100088.94;;;12.85;100.00
55070;BME280;40967;52.070;8.596;2022-10-16T02:07:27;100089.53;;;12.82;100.00
55070;BME280;40967;52.070;8.596;2022-10-16T02:09:53;100095.78;;;12.83;100.00
55070;BME280;40967;52.070;8.596;2022-10-16T02:12:26;100087.97;;;12.76;100.00
55070;BME280;40967;52.070;8.596;2022-10-16T02:14:52;100091.75;;;12.80;100.00
55070;BME280;40967;52.070;8.596;2022-10-16T02:17:19;100090.09;;;12.79;100.00
55070;BME280;40967;52.070;8.596;2022-10-16T02:19:46;100086.06;;;12.77;100.00
55070;BME280;40967;52.070;8.596;2022-10-16T02:22:18;100087.16;;;12.76;100.00
55070;BME280;40967;52.070;8.596;2022-10-16T02:24:54;100079.28;;;12.74;100.00
55070;BME280;40967;52.070;8.596;2022-10-16T02:30:06;100070.09;;;12.70;100.00
55070;BME280;40967;52.070;8.596;2022-10-16T02:32:34;100066.88;;;12.68;100.00
55070;BME280;40967;52.070;8.596;2022-10-16T02:35:01;100069.88;;;12.67;100.00
55070;BME280;40967;52.070;8.596;2022-10-16T02:37:28;100080.50;;;12.68;100.00
55070;BME280;40967;52.070;8.596;2022-10-16T02:39:57;100080.50;;;12.68;100.00
55070;BME280;40967;52.070;8.596;2022-10-16T02:42:43;100066.72;;;12.60;100.00
55070;BME280;40967;52.070;8.596;2022-10-16T02:45:10;100074.31;;;12.63;100.00
55070;BME280;40967;52.070;8.596;2022-10-16T02:47:37;100074.91;;;12.60;100.00
55070;BME280;40967;52.070;8.596;2022-10-16T02:50:04;100089.88;;;12.57;100.00
55070;BME280;40967;52.070;8.596;2022-10-16T02:52:33;100099.44;;;12.54;100.00
55070;BME280;40967;52.070;8.596;2022-10-16T02:55:03;100100.03;;;12.51;100.00
55070;BME280;40967;52.070;8.596;2022-10-16T02:57:55;100096.00;;;12.49;100.00
55070;BME280;40967;52.070;8.596;2022-10-16T03:00:22;100089.50;;;12.45;100.00
55070;BME280;40967;52.070;8.596;2022-10-16T03:02:55;100093.91;;;12.41;100.00
55070;BME280;40967;52.070;8.596;2022-10-16T03:05:24;100095.31;;;12.38;100.00
55070;BME280;40967;52.070;8.596;2022-10-16T03:07:50;100088.00;;;12.34;100.00
55070;BME280;40967;52.070;8.596;2022-10-16T03:10:17;100096.22;;;12.29;100.00
55070;BME280;40967;52.070;8.596;2022-10-16T03:12:43;100096.53;;;12.27;100.00
55070;BME280;40967;52.070;8.596;2022-10-16T03:15:08;100101.22;;;12.22;100.00
55070;BME280;40967;52.070;8.596;2022-10-16T03:17:34;100095.25;;;12.20;100.00
55070;BME280;40967;52.070;8.596;2022-10-16T03:19:59;100093.41;;;12.15;100.00
55070;BME280;40967;52.070;8.596;2022-10-16T03:22:25;100087.97;;;12.15;100.00
55070;BME280;40967;52.070;8.596;2022-10-16T03:24:50;100104.16;;;12.25;100.00
55070;BME280;40967;52.070;8.596;2022-10-16T03:27:15;100102.25;;;12.26;100.00
55070;BME280;40967;52.070;8.596;2022-10-16T03:29:41;100105.81;;;12.26;100.00
55070;BME280;40967;52.070;8.596;2022-10-16T03:32:06;100098.44;;;12.27;100.00
55070;BME280;40967;52.070;8.596;2022-10-16T03:34:31;100097.63;;;12.26;100.00
55070;BME280;40967;52.070;8.596;2022-10-16T03:36:57;100095.19;;;12.25;100.00
55070;BME280;40967;52.070;8.596;2022-10-16T03:39:22;100081.94;;;12.18;100.00
55070;BME280;40967;52.070;8.596;2022-10-16T03:41:48;100099.53;;;12.26;100.00
55070;BME280;40967;52.070;8.596;2022-10-16T03:44:13;100094.41;;;12.24;100.00
55070;BME280;40967;52.070;8.596;2022-10-16T03:46:39;100093.88;;;12.22;100.00
55070;BME280;40967;52.070;8.596;2022-10-16T03:49:04;100112.31;;;12.25;100.00
55070;BME280;40967;52.070;8.596;2022-10-16T03:51:30;100113.72;;;12.23;100.00
55070;BME280;40967;52.070;8.596;2022-10-16T03:53:55;100107.25;;;12.19;100.00
55070;BME280;40967;52.070;8.596;2022-10-16T03:56:21;100108.34;;;12.18;100.00
55070;BME280;40967;52.070;8.596;2022-10-16T03:58:46;100107.81;;;12.16;100.00
55070;BME280;40967;52.070;8.596;2022-10-16T04:01:12;100111.09;;;12.13;100.00
55070;BME280;40967;52.070;8.596;2022-10-16T04:03:37;100102.72;;;12.09;100.00
55070;BME280;40967;52.070;8.596;2022-10-16T04:06:02;100116.84;;;12.11;100.00
55070;BME280;40967;52.070;8.596;2022-10-16T04:08:28;100107.88;;;12.11;100.00
55070;BME280;40967;52.070;8.596;2022-10-16T04:10:53;100103.53;;;12.10;100.00
55070;BME280;40967;52.070;8.596;2022-10-16T04:13:19;100093.81;;;12.04;100.00
55070;BME280;40967;52.070;8.596;2022-10-16T04:15:45;100102.94;;;12.13;100.00
55070;BME280;40967;52.070;8.596;2022-10-16T04:18:10;100109.44;;;12.17;100.00
55070;BME280;40967;52.070;8.596;2022-10-16T04:20:36;100102.38;;;12.16;100.00
55070;BME280;40967;52.070;8.596;2022-10-16T04:23:01;100106.66;;;12.22;100.00
55070;BME280;40967;52.070;8.596;2022-10-16T04:25:27;100109.91;;;12.24;100.00
55070;BME280;40967;52.070;8.596;2022-10-16T04:27:53;100114.22;;;12.25;100.00
55070;BME280;40967;52.070;8.596;2022-10-16T04:30:19;100120.66;;;12.34;100.00
55070;BME280;40967;52.070;8.596;2022-10-16T04:32:48;100115.78;;;12.31;100.00
55070;BME280;40967;52.070;8.596;2022-10-16T04:35:14;100134.41;;;12.42;100.00
55070;BME280;40967;52.070;8.596;2022-10-16T04:37:39;100123.81;;;12.41;100.00
55070;BME280;40967;52.070;8.596;2022-10-16T04:40:05;100118.75;;;12.34;100.00
55070;BME280;40967;52.070;8.596;2022-10-16T04:42:30;100123.75;;;12.46;100.00
55070;BME280;40967;52.070;8.596;2022-10-16T04:44:55;100135.41;;;12.51;100.00
55070;BME280;40967;52.070;8.596;2022-10-16T04:47:21;100144.31;;;12.57;100.00
55070;BME280;40967;52.070;8.596;2022-10-16T04:49:46;100118.31;;;12.46;100.00
55070;BME280;40967;52.070;8.596;2022-10-16T04:52:12;100142.63;;;12.61;100.00
55070;BME280;40967;52.070;8.596;2022-10-16T04:54:37;100151.53;;;12.67;100.00
55070;BME280;40967;52.070;8.596;2022-10-16T04:57:02;100149.03;;;12.70;100.00
55070;BME280;40967;52.070;8.596;2022-10-16T04:59:30;100151.19;;;12.73;100.00
55070;BME280;40967;52.070;8.596;2022-10-16T05:01:55;100157.16;;;12.75;100.00
55070;BME280;40967;52.070;8.596;2022-10-16T05:04:21;100160.09;;;12.79;100.00
55070;BME280;40967;52.070;8.596;2022-10-16T05:06:48;100159.00;;;12.80;100.00
55070;BME280;40967;52.070;8.596;2022-10-16T05:09:23;100154.38;;;12.80;100.00
55070;BME280;40967;52.070;8.596;2022-10-16T05:11:48;100148.91;;;12.80;100.00
55070;BME280;40967;52.070;8.596;2022-10-16T05:14:13;100146.19;;;12.80;100.00
55070;BME280;40967;52.070;8.596;2022-10-16T05:16:39;100156.94;;;12.90;100.00
55070;BME280;40967;52.070;8.596;2022-10-16T05:19:04;100164.00;;;12.91;100.00
55070;BME280;40967;52.070;8.596;2022-10-16T05:21:29;100150.69;;;12.90;100.00
55070;BME280;40967;52.070;8.596;2022-10-16T05:23:55;100154.22;;;12.90;100.00
55070;BME280;40967;52.070;8.596;2022-10-16T05:26:21;100146.06;;;12.90;100.00
55070;BME280;40967;52.070;8.596;2022-10-16T05:28:47;100165.84;;;12.96;100.00
55070;BME280;40967;52.070;8.596;2022-10-16T05:31:12;100167.53;;;12.92;100.00
55070;BME280;40967;52.070;8.596;2022-10-16T05:33:38;100177.03;;;12.94;100.00
55070;BME280;40967;52.070;8.596;2022-10-16T05:36:07;100170.47;;;12.95;100.00
55070;BME280;40967;52.070;8.596;2022-10-16T05:38:34;100177.03;;;12.94;100.00
55070;BME280;40967;52.070;8.596;2022-10-16T05:41:15;100154.88;;;12.82;100.00
55070;BME280;40967;52.070;8.596;2022-10-16T05:43:49;100179.31;;;12.87;100.00
55070;BME280;40967;52.070;8.596;2022-10-16T05:46:28;100168.75;;;12.81;100.00
55070;BME280;40967;52.070;8.596;2022-10-16T05:48:55;100176.13;;;12.80;100.00
55070;BME280;40967;52.070;8.596;2022-10-16T05:51:35;100185.47;;;12.74;100.00
55070;BME280;40967;52.070;8.596;2022-10-16T05:54:02;100186.91;;;12.67;100.00
55070;BME280;40967;52.070;8.596;2022-10-16T05:56:31;100183.47;;;12.61;100.00
55070;BME280;40967;52.070;8.596;2022-10-16T05:58:56;100208.47;;;12.63;100.00
55070;BME280;40967;52.070;8.596;2022-10-16T06:01:21;100212.59;;;12.61;100.00
55070;BME280;40967;52.070;8.596;2022-10-16T06:03:50;100215.59;;;12.59;100.00
55070;BME280;40967;52.070;8.596;2022-10-16T06:06:22;100221.63;;;12.56;100.00
55070;BME280;40967;52.070;8.596;2022-10-16T06:08:48;100223.81;;;12.54;100.00
55070;BME280;40967;52.070;8.596;2022-10-16T06:11:22;100224.13;;;12.52;100.00
55070;BME280;40967;52.070;8.596;2022-10-16T06:13:57;100209.22;;;12.45;100.00
55070;BME280;40967;52.070;8.596;2022-10-16T06:16:24;100219.00;;;12.46;100.00
55070;BME280;40967;52.070;8.596;2022-10-16T06:18:51;100217.38;;;12.45;100.00
55070;BME280;40967;52.070;8.596;2022-10-16T06:21:23;100225.84;;;12.43;100.00
55070;BME280;40967;52.070;8.596;2022-10-16T06:23:51;100231.56;;;12.42;100.00
55070;BME280;40967;52.070;8.596;2022-10-16T06:26:20;100237.31;;;12.40;100.00
55070;BME280;40967;52.070;8.596;2022-10-16T06:28:46;100230.75;;;12.41;100.00
55070;BME280;40967;52.070;8.596;2022-10-16T06:31:13;100233.78;;;12.40;100.00
55070;BME280;40967;52.070;8.596;2022-10-16T06:33:39;100240.75;;;12.46;100.00
55070;BME280;40967;52.070;8.596;2022-10-16T06:36:10;100239.16;;;12.45;100.00
55070;BME280;40967;52.070;8.596;2022-10-16T06:38:36;100237.44;;;12.54;100.00
55070;BME280;40967;52.070;8.596;2022-10-16T06:41:02;100232.22;;;12.57;100.00
55070;BME280;40967;52.070;8.596;2022-10-16T06:43:31;100242.63;;;12.74;100.00
55070;BME280;40967;52.070;8.596;2022-10-16T06:45:58;100253.97;;;12.81;100.00
55070;BME280;40967;52.070;8.596;2022-10-16T06:48:35;100262.03;;;12.91;100.00
55070;BME280;40967;52.070;8.596;2022-10-16T06:51:28;100265.19;;;12.98;100.00
55070;BME280;40967;52.070;8.596;2022-10-16T06:53:56;100261.66;;;13.03;100.00
55070;BME280;40967;52.070;8.596;2022-10-16T06:56:24;100262.69;;;13.07;100.00
55070;BME280;40967;52.070;8.596;2022-10-16T06:58:57;100268.06;;;13.12;100.00
55070;BME280;40967;52.070;8.596;2022-10-16T07:01:59;100279.41;;;13.19;100.00
55070;BME280;40967;52.070;8.596;2022-10-16T07:04:45;100242.88;;;12.96;100.00
55070;BME280;40967;52.070;8.596;2022-10-16T07:07:17;100287.25;;;13.25;100.00
55070;BME280;40967;52.070;8.596;2022-10-16T07:09:53;100291.81;;;13.30;100.00
55070;BME280;40967;52.070;8.596;2022-10-16T07:12:29;100286.81;;;13.37;100.00
55070;BME280;40967;52.070;8.596;2022-10-16T07:15:07;100285.88;;;13.46;100.00
55070;BME280;40967;52.070;8.596;2022-10-16T07:17:49;100303.59;;;13.62;100.00
55070;BME280;40967;52.070;8.596;2022-10-16T07:23:16;100302.50;;;13.82;99.00
55070;BME280;40967;52.070;8.596;2022-10-16T07:25:45;100309.06;;;14.00;100.00
55070;BME280;40967;52.070;8.596;2022-10-16T07:28:19;100304.53;;;14.09;99.38
55070;BME280;40967;52.070;8.596;2022-10-16T07:30:45;100311.09;;;14.26;99.31
55070;BME280;40967;52.070;8.596;2022-10-16T07:33:11;100318.00;;;14.37;98.49
55070;BME280;40967;52.070;8.596;2022-10-16T07:35:51;100336.00;;;14.38;96.80
55070;BME280;40967;52.070;8.596;2022-10-16T07:38:17;100335.91;;;14.43;96.31
55070;BME280;40967;52.070;8.596;2022-10-16T07:41:03;100342.81;;;14.54;96.26
55070;BME280;40967;52.070;8.596;2022-10-16T07:44:15;100352.75;;;14.64;95.86
55070;BME280;40967;52.070;8.596;2022-10-16T07:47:31;100363.50;;;14.74;95.11
55070;BME280;40967;52.070;8.596;2022-10-16T07:54:19;100374.78;;;15.13;93.96
55070;BME280;40967;52.070;8.596;2022-10-16T07:56:45;100380.47;;;15.17;93.26
55070;BME280;40967;52.070;8.596;2022-10-16T07:59:20;100380.66;;;15.20;92.46
55070;BME280;40967;52.070;8.596;2022-10-16T08:02:10;100388.03;;;15.20;92.06
55070;BME280;40967;52.070;8.596;2022-10-16T08:04:37;100388.88;;;15.20;91.61
55070;BME280;40967;52.070;8.596;2022-10-16T08:07:03;100395.31;;;15.24;91.46
55070;BME280;40967;52.070;8.596;2022-10-16T08:09:36;100389.84;;;15.38;91.30
55070;BME280;40967;52.070;8.596;2022-10-16T08:12:03;100396.56;;;15.45;91.11
55070;BME280;40967;52.070;8.596;2022-10-16T08:14:39;100388.56;;;15.62;91.66
55070;BME280;40967;52.070;8.596;2022-10-16T08:17:17;100387.00;;;15.83;90.41
55070;BME280;40967;52.070;8.596;2022-10-16T08:19:50;100385.69;;;15.95;90.51
55070;BME280;40967;52.070;8.596;2022-10-16T08:22:25;100393.78;;;16.22;90.74
55070;BME280;40967;52.070;8.596;2022-10-16T08:24:53;100405.88;;;16.43;89.59
55070;BME280;40967;52.070;8.596;2022-10-16T08:27:21;100404.88;;;16.39;86.72
55070;BME280;40967;52.070;8.596;2022-10-16T08:29:51;100414.31;;;16.46;86.50
55070;BME280;40967;52.070;8.596;2022-10-16T08:32:29;100412.03;;;16.62;87.14
55070;BME280;40967;52.070;8.596;2022-10-16T08:35:02;100408.22;;;16.71;85.21
55070;BME280;40967;52.070;8.596;2022-10-16T08:37:50;100421.47;;;16.78;84.70
55070;BME280;40967;52.070;8.596;2022-10-16T08:49:27;100427.88;;;17.26;81.75
55070;BME280;40967;52.070;8.596;2022-10-16T08:52:12;100431.47;;;17.35;81.45
55070;BME280;40967;52.070;8.596;2022-10-16T08:54:43;100438.09;;;17.43;81.29
55070;BME280;40967;52.070;8.596;2022-10-16T08:57:37;100433.00;;;17.50;80.97
55070;BME280;40967;52.070;8.596;2022-10-16T09:00:14;100431.09;;;17.59;79.03
55070;BME280;40967;52.070;8.596;2022-10-16T09:08:42;100446.16;;;17.78;76.77
55070;BME280;40967;52.070;8.596;2022-10-16T09:20:00;100473.72;;;17.56;75.65
55070;BME280;40967;52.070;8.596;2022-10-16T09:22:36;100473.72;;;17.56;74.93
55070;BME280;40967;52.070;8.596;2022-10-16T09:25:12;100466.97;;;17.71;74.36
55070;BME280;40967;52.070;8.596;2022-10-16T09:27:39;100468.59;;;17.72;74.18
55070;BME280;40967;52.070;8.596;2022-10-16T09:32:39;100469.09;;;17.74;74.07
55070;BME280;40967;52.070;8.596;2022-10-16T09:35:21;100470.88;;;17.78;73.40
55070;BME280;40967;52.070;8.596;2022-10-16T09:37:50;100470.06;;;17.86;73.09
55070;BME280;40967;52.070;8.596;2022-10-16T09:42:56;100468.66;;;17.89;72.40
55070;BME280;40967;52.070;8.596;2022-10-16T09:45:52;100464.09;;;17.84;72.05
55070;BME280;40967;52.070;8.596;2022-10-16T09:48:23;100475.28;;;17.96;71.79
55070;BME280;40967;52.070;8.596;2022-10-16T09:51:05;100461.06;;;17.94;71.27
55070;BME280;40967;52.070;8.596;2022-10-16T09:53:46;100474.84;;;18.11;70.78
55070;BME280;40967;52.070;8.596;2022-10-16T09:56:42;100477.75;;;18.15;70.86
55070;BME280;40967;52.070;8.596;2022-10-16T09:59:16;100478.75;;;18.28;70.36
55070;BME280;40967;52.070;8.596;2022-10-16T10:05:01;100487.69;;;18.42;70.54
55070;BME280;40967;52.070;8.596;2022-10-16T10:07:31;100495.28;;;18.70;69.72
55070;BME280;40967;52.070;8.596;2022-10-16T10:10:00;100489.56;;;19.01;68.57
55070;BME280;40967;52.070;8.596;2022-10-16T10:12:33;100497.34;;;18.82;66.16
55070;BME280;40967;52.070;8.596;2022-10-16T10:15:14;100501.75;;;18.57;66.79
55070;BME280;40967;52.070;8.596;2022-10-16T10:17:55;100500.75;;;18.45;66.80
55070;BME280;40967;52.070;8.596;2022-10-16T10:20:35;100498.34;;;18.52;66.88
55070;BME280;40967;52.070;8.596;2022-10-16T10:23:34;100510.31;;;18.73;66.08
55070;BME280;40967;52.070;8.596;2022-10-16T10:29:03;100517.91;;;18.76;65.42
55070;BME280;40967;52.070;8.596;2022-10-16T10:32:07;100486.38;;;18.48;65.60
55070;BME280;40967;52.070;8.596;2022-10-16T10:44:17;100499.94;;;19.04;64.16
55070;BME280;40967;52.070;8.596;2022-10-16T10:50:47;100521.31;;;18.81;63.61
55070;BME280;40967;52.070;8.596;2022-10-16T11:02:41;100526.28;;;19.05;62.20
55070;BME280;40967;52.070;8.596;2022-10-16T11:10:42;100527.75;;;18.77;62.08
55070;BME280;40967;52.070;8.596;2022-10-16T11:13:29;100537.94;;;18.68;62.46
55070;BME280;40967;52.070;8.596;2022-10-16T11:16:17;100529.06;;;18.88;62.55
55070;BME280;40967;52.070;8.596;2022-10-16T11:19:12;100530.19;;;19.04;62.09
55070;BME280;40967;52.070;8.596;2022-10-16T11:21:49;100524.69;;;19.12;61.77
55070;BME280;40967;52.070;8.596;2022-10-16T11:27:52;100533.00;;;19.59;61.97
55070;BME280;40967;52.070;8.596;2022-10-16T11:30:34;100487.69;;;19.56;60.89
55070;BME280;40967;52.070;8.596;2022-10-16T11:36:00;100535.22;;;20.11;58.98
55070;BME280;40967;52.070;8.596;2022-10-16T11:42:15;100544.94;;;20.67;57.46
55070;BME280;40967;52.070;8.596;2022-10-16T11:45:02;100540.41;;;20.63;56.58
55070;BME280;40967;52.070;8.596;2022-10-16T11:47:56;100543.84;;;20.39;55.99
55070;BME280;40967;52.070;8.596;2022-10-16T11:50:38;100546.16;;;20.28;56.34
55070;BME280;40967;52.070;8.596;2022-10-16T11:53:34;100544.72;;;20.31;56.67
55070;BME280;40967;52.070;8.596;2022-10-16T11:56:20;100540.94;;;20.36;56.47
55070;BME280;40967;52.070;8.596;2022-10-16T11:59:48;100549.91;;;20.15;56.62
55070;BME280;40967;52.070;8.596;2022-10-16T12:05:55;100547.81;;;19.83;57.12
55070;BME280;40967;52.070;8.596;2022-10-16T12:08:27;100552.03;;;19.81;57.30
55070;BME280;40967;52.070;8.596;2022-10-16T12:11:06;100557.53;;;19.81;57.19
55070;BME280;40967;52.070;8.596;2022-10-16T12:13:45;100548.63;;;19.84;57.47
55070;BME280;40967;52.070;8.596;2022-10-16T12:16:20;100548.00;;;19.78;57.18
55070;BME280;40967;52.070;8.596;2022-10-16T12:18:48;100550.94;;;19.73;57.38
55070;BME280;40967;52.070;8.596;2022-10-16T12:21:18;100558.94;;;19.58;57.37
55070;BME280;40967;52.070;8.596;2022-10-16T12:24:26;100574.03;;;19.35;58.12
55070;BME280;40967;52.070;8.596;2022-10-16T12:26:56;100569.00;;;19.28;58.60
55070;BME280;40967;52.070;8.596;2022-10-16T12:29:40;100572.22;;;19.04;58.29
55070;BME280;40967;52.070;8.596;2022-10-16T12:32:32;100576.28;;;18.90;58.79
55070;BME280;40967;52.070;8.596;2022-10-16T12:35:34;100578.22;;;18.89;58.45
55070;BME280;40967;52.070;8.596;2022-10-16T12:46:52;100573.69;;;19.02;58.50
55070;BME280;40967;52.070;8.596;2022-10-16T12:49:36;100575.31;;;19.03;57.62
55070;BME280;40967;52.070;8.596;2022-10-16T12:52:34;100579.19;;;19.02;57.92
55070;BME280;40967;52.070;8.596;2022-10-16T12:55:01;100581.44;;;19.17;57.94
55070;BME280;40967;52.070;8.596;2022-10-16T13:12:18;100597.09;;;19.68;56.20
55070;BME280;40967;52.070;8.596;2022-10-16T13:22:10;100602.09;;;19.74;55.89
55070;BME280;40967;52.070;8.596;2022-10-16T13:28:10;100595.56;;;19.96;55.88
55070;BME280;40967;52.070;8.596;2022-10-16T13:31:09;100614.13;;;20.16;56.22
55070;BME280;40967;52.070;8.596;2022-10-16T13:33:44;100620.56;;;20.28;56.16
55070;BME280;40967;52.070;8.596;2022-10-16T13:36:22;100607.22;;;20.39;56.43
55070;BME280;40967;52.070;8.596;2022-10-16T13:44:52;100616.97;;;20.66;56.16
55070;BME280;40967;52.070;8.596;2022-10-16T13:47:24;100618.97;;;20.57;55.89
55070;BME280;40967;52.070;8.596;2022-10-16T13:50:06;100621.03;;;20.60;56.07
55070;BME280;40967;52.070;8.596;2022-10-16T13:52:37;100623.88;;;20.72;56.30
55070;BME280;40967;52.070;8.596;2022-10-16T13:55:31;100629.53;;;20.75;55.62
55070;BME280;40967;52.070;8.596;2022-10-16T13:58:12;100626.47;;;20.48;55.54
55070;BME280;40967;52.070;8.596;2022-10-16T14:01:04;100633.19;;;20.29;56.04
55070;BME280;40967;52.070;8.596;2022-10-16T14:03:34;100630.00;;;20.19;56.44
55070;BME280;40967;52.070;8.596;2022-10-16T14:06:15;100631.28;;;20.21;56.49
55070;BME280;40967;52.070;8.596;2022-10-16T14:09:13;100624.31;;;20.15;56.59
55070;BME280;40967;52.070;8.596;2022-10-16T14:11:58;100632.06;;;20.30;56.88
55070;BME280;40967;52.070;8.596;2022-10-16T14:14:51;100630.28;;;20.26;56.20
55070;BME280;40967;52.070;8.596;2022-10-16T14:17:48;100646.47;;;20.36;56.58
55070;BME280;40967;52.070;8.596;2022-10-16T14:20:31;100636.06;;;20.42;55.81
55070;BME280;40967;52.070;8.596;2022-10-16T14:23:04;100649.19;;;20.45;55.40
55070;BME280;40967;52.070;8.596;2022-10-16T14:25:39;100645.00;;;20.39;54.93
55070;BME280;40967;52.070;8.596;2022-10-16T14:28:23;100646.03;;;20.25;55.19
55070;BME280;40967;52.070;8.596;2022-10-16T14:31:00;100644.25;;;20.12;55.34
55070;BME280;40967;52.070;8.596;2022-10-16T14:33:34;100643.00;;;20.10;55.34
55070;BME280;40967;52.070;8.596;2022-10-16T14:39:22;100632.97;;;19.97;55.37
55070;BME280;40967;52.070;8.596;2022-10-16T14:41:51;100640.59;;;19.91;55.68
55070;BME280;40967;52.070;8.596;2022-10-16T14:44:44;100635.63;;;19.76;55.70
55070;BME280;40967;52.070;8.596;2022-10-16T14:51:43;100645.53;;;19.60;56.22
55070;BME280;40967;52.070;8.596;2022-10-16T14:54:18;100642.63;;;19.48;56.72
55070;BME280;40967;52.070;8.596;2022-10-16T14:59:43;100642.81;;;19.35;56.74
55070;BME280;40967;52.070;8.596;2022-10-16T15:07:46;100646.84;;;19.29;57.28
55070;BME280;40967;52.070;8.596;2022-10-16T15:10:13;100653.47;;;19.27;57.60
55070;BME280;40967;52.070;8.596;2022-10-16T15:12:39;100632.91;;;19.25;57.82
55070;BME280;40967;52.070;8.596;2022-10-16T15:15:37;100639.06;;;19.39;58.19
55070;BME280;40967;52.070;8.596;2022-10-16T15:18:04;100654.63;;;19.44;58.26
55070;BME280;40967;52.070;8.596;2022-10-16T15:20:32;100652.19;;;19.42;58.70
55070;BME280;40967;52.070;8.596;2022-10-16T15:23:03;100649.94;;;19.44;59.01
55070;BME280;40967;52.070;8.596;2022-10-16T15:27:54;100660.94;;;19.44;59.11
55070;BME280;40967;52.070;8.596;2022-10-16T15:30:19;100665.63;;;19.52;58.97
55070;BME280;40967;52.070;8.596;2022-10-16T15:32:45;100667.72;;;19.55;58.93
55070;BME280;40967;52.070;8.596;2022-10-16T15:35:10;100656.38;;;19.48;58.86
55070;BME280;40967;52.070;8.596;2022-10-16T15:37:35;100667.88;;;19.50;58.94
55070;BME280;40967;52.070;8.596;2022-10-16T15:40:01;100659.81;;;19.45;58.74
55070;BME280;40967;52.070;8.596;2022-10-16T15:42:26;100661.56;;;19.41;58.64
55070;BME280;40967;52.070;8.596;2022-10-16T15:44:51;100676.81;;;19.39;58.58
55070;BME280;40967;52.070;8.596;2022-10-16T15:47:20;100667.69;;;19.30;58.90
55070;BME280;40967;52.070;8.596;2022-10-16T15:49:45;100667.53;;;19.26;58.96
55070;BME280;40967;52.070;8.596;2022-10-16T15:52:11;100668.97;;;19.23;59.07